createdAt,value
2022-10-31T00:01:25.521Z,98959.59
2022-10-31T00:03:52.863Z,98958.97
2022-10-31T00:06:19.810Z,98966.41
2022-10-31T00:08:47.453Z,98967.28
2022-10-31T00:11:14.474Z,98966.22
2022-10-31T00:13:40.996Z,98970.13
2022-10-31T00:16:17.504Z,98969.19
2022-10-31T00:18:44.281Z,98966.81
2022-10-31T00:21:10.812Z,98970.81
2022-10-31T00:23:37.394Z,98977.34
2022-10-31T00:26:05.197Z,98984.16
2022-10-31T00:28:32.951Z,98974.31
2022-10-31T00:31:04.401Z,98973.59
2022-10-31T00:33:31.163Z,98974.31
2022-10-31T00:35:57.871Z,98973.56
2022-10-31T00:38:24.539Z,98977.31
2022-10-31T00:40:51.126Z,98974.63
2022-10-31T00:43:17.678Z,98974.50
2022-10-31T00:45:44.705Z,98965.66
2022-10-31T00:48:11.394Z,98973.16
2022-10-31T00:50:38.570Z,98967.81
2022-10-31T00:53:05.704Z,98977.03
2022-10-31T00:55:32.594Z,98973.38
2022-10-31T00:57:59.509Z,98972.56
2022-10-31T01:00:26.627Z,98972.56
2022-10-31T01:02:53.250Z,98967.47
2022-10-31T01:05:20.041Z,98964.91
2022-10-31T01:07:47.118Z,98965.38
2022-10-31T01:10:13.812Z,98968.31
2022-10-31T01:12:45.963Z,98967.56
2022-10-31T01:15:17.135Z,98962.28
2022-10-31T01:17:43.751Z,98964.69
2022-10-31T01:20:13.656Z,98958.97
2022-10-31T01:22:40.279Z,98961.16
2022-10-31T01:25:08.474Z,98960.03
2022-10-31T01:27:35.365Z,98956.41
2022-10-31T01:30:01.920Z,98954.34
2022-10-31T01:32:29.876Z,98956.72
2022-10-31T01:34:56.568Z,98957.56
2022-10-31T01:37:23.145Z,98954.25
2022-10-31T01:39:50.121Z,98958.41
2022-10-31T01:42:20.775Z,98964.44
2022-10-31T01:44:58.824Z,98962.22
2022-10-31T01:47:34.881Z,98968.03
2022-10-31T01:50:06.700Z,98972.91
2022-10-31T01:52:41.482Z,98972.41
2022-10-31T01:55:19.224Z,98962.75
2022-10-31T01:57:50.972Z,98969.19
2022-10-31T02:00:18.109Z,98960.16
2022-10-31T02:02:46.998Z,98967.13
2022-10-31T02:05:22.312Z,98967.94
2022-10-31T02:07:54.885Z,98966.47
2022-10-31T02:10:28.234Z,98963.63
2022-10-31T02:12:58.034Z,98963.28
2022-10-31T02:15:25.290Z,98966.34
2022-10-31T02:17:52.692Z,98959.03
2022-10-31T02:20:23.536Z,98955.06
2022-10-31T02:23:02.325Z,98954.47
2022-10-31T02:25:51.078Z,98956.28
2022-10-31T02:28:49.384Z,98945.75
2022-10-31T02:31:38.877Z,98953.25
2022-10-31T02:34:23.804Z,98939.94
2022-10-31T02:36:56.232Z,98942.22
2022-10-31T02:39:25.113Z,98937.41
2022-10-31T02:42:11.863Z,98936.00
2022-10-31T02:45:01.756Z,98938.22
2022-10-31T02:47:30.592Z,98932.47
2022-10-31T02:50:06.695Z,98932.47
2022-10-31T02:52:35.477Z,98930.81
2022-10-31T02:55:35.662Z,98926.69
2022-10-31T02:58:11.984Z,98919.44
2022-10-31T03:01:00.936Z,98926.19
2022-10-31T03:03:41.876Z,98921.31
2022-10-31T03:06:21.462Z,98928.63
2022-10-31T03:09:16.163Z,98927.34
2022-10-31T03:11:55.456Z,98932.22
2022-10-31T03:14:31.191Z,98931.81
2022-10-31T03:17:05.015Z,98927.66
2022-10-31T03:19:37.036Z,98938.78
2022-10-31T03:22:11.298Z,98934.63
2022-10-31T03:24:40.351Z,98936.84
2022-10-31T03:27:10.670Z,98932.13
2022-10-31T03:29:40.336Z,98935.56
2022-10-31T03:32:35.550Z,98928.19
2022-10-31T03:35:08.173Z,98931.34
2022-10-31T03:37:36.585Z,98928.97
2022-10-31T03:40:06.026Z,98927.66
2022-10-31T03:42:38.412Z,98929.03
2022-10-31T03:45:15.489Z,98935.41
2022-10-31T03:47:44.581Z,98929.91
2022-10-31T03:50:15.096Z,98921.94
2022-10-31T03:52:55.768Z,98935.34
2022-10-31T03:55:32.867Z,98930.94
2022-10-31T03:58:28.566Z,98926.28
2022-10-31T04:00:58.461Z,98933.78
2022-10-31T04:03:31.038Z,98926.75
2022-10-31T04:06:06.495Z,98933.63
2022-10-31T04:08:41.553Z,98933.38
2022-10-31T04:11:12.690Z,98926.97
2022-10-31T04:13:45.248Z,98928.53
2022-10-31T04:16:17.531Z,98920.53
2022-10-31T04:18:45.081Z,98925.31
2022-10-31T04:21:11.685Z,98926.22
2022-10-31T04:23:38.271Z,98929.91
2022-10-31T04:26:14.212Z,98931.06
2022-10-31T04:28:43.684Z,98925.78
2022-10-31T04:31:13.046Z,98922.19
2022-10-31T04:33:40.088Z,98933.06
2022-10-31T04:36:07.313Z,98929.81
2022-10-31T04:38:34.214Z,98922.38
2022-10-31T04:41:03.640Z,98923.66
2022-10-31T04:43:33.237Z,98922.75
2022-10-31T04:46:01.125Z,98921.41
2022-10-31T04:48:28.289Z,98917.34
2022-10-31T04:51:02.526Z,98920.44
2022-10-31T04:53:29.871Z,98926.50
2022-10-31T04:56:16.688Z,98914.00
2022-10-31T04:58:46.741Z,98922.31
2022-10-31T05:01:13.815Z,98921.84
2022-10-31T05:03:40.586Z,98915.88
2022-10-31T05:06:07.998Z,98917.66
2022-10-31T05:08:35.395Z,98913.06
2022-10-31T05:11:05.651Z,98916.41
2022-10-31T05:13:33.759Z,98913.28
2022-10-31T05:16:12.488Z,98910.56
2022-10-31T05:19:08.443Z,98909.41
2022-10-31T05:21:53.588Z,98907.72
2022-10-31T05:24:22.685Z,98904.31
2022-10-31T05:26:50.210Z,98891.28
2022-10-31T05:29:17.620Z,98904.47
2022-10-31T05:31:44.215Z,98894.66
2022-10-31T05:34:23.794Z,98898.84
2022-10-31T05:37:13.971Z,98899.91
2022-10-31T05:39:41.995Z,98887.38
2022-10-31T05:42:14.319Z,98878.34
2022-10-31T05:44:41.819Z,98882.47
2022-10-31T05:47:31.308Z,98876.91
2022-10-31T05:50:33.491Z,98880.63
2022-10-31T05:53:08.921Z,98880.38
2022-10-31T05:55:37.729Z,98881.53
2022-10-31T05:58:11.011Z,98873.66
2022-10-31T06:00:39.769Z,98872.75
2022-10-31T06:03:10.609Z,98877.63
2022-10-31T06:05:50.839Z,98879.00
2022-10-31T06:08:21.438Z,98870.16
2022-10-31T06:10:49.169Z,98878.06
2022-10-31T06:13:21.098Z,98869.81
2022-10-31T06:16:00.106Z,98874.28
2022-10-31T06:18:34.115Z,98872.44
2022-10-31T06:21:01.053Z,98867.56
2022-10-31T06:23:28.695Z,98871.44
2022-10-31T06:26:15.176Z,98878.44
2022-10-31T06:28:41.929Z,98870.69
2022-10-31T06:31:26.879Z,98875.53
2022-10-31T06:33:53.475Z,98878.31
2022-10-31T06:36:20.154Z,98880.44
2022-10-31T06:38:47.371Z,98878.38
2022-10-31T06:41:17.205Z,98881.44
2022-10-31T06:43:48.240Z,98882.31
2022-10-31T06:46:43.522Z,98883.91
2022-10-31T06:49:28.643Z,98879.53
2022-10-31T06:51:59.598Z,98882.63
2022-10-31T06:54:26.596Z,98871.69
2022-10-31T06:56:54.253Z,98873.69
2022-10-31T06:59:21.566Z,98877.81
2022-10-31T07:02:11.686Z,98874.81
2022-10-31T07:04:39.946Z,98879.53
2022-10-31T07:07:07.258Z,98875.72
2022-10-31T07:09:35.810Z,98875.94
2022-10-31T07:12:04.302Z,98874.91
2022-10-31T07:14:33.073Z,98879.31
2022-10-31T07:17:00.773Z,98873.84
2022-10-31T07:19:33.508Z,98874.00
2022-10-31T07:22:00.185Z,98876.72
2022-10-31T07:24:28.886Z,98882.44
2022-10-31T07:27:15.348Z,98875.47
2022-10-31T07:29:43.454Z,98878.75
2022-10-31T07:32:10.043Z,98886.00
2022-10-31T07:34:44.940Z,98882.34
2022-10-31T07:37:22.519Z,98875.66
2022-10-31T07:39:49.056Z,98884.88
2022-10-31T07:42:16.280Z,98884.72
2022-10-31T07:44:45.239Z,98886.53
2022-10-31T07:47:30.181Z,98883.31
2022-10-31T07:50:18.504Z,98888.00
2022-10-31T07:53:12.312Z,98888.56
2022-10-31T07:55:39.662Z,98884.28
2022-10-31T07:58:10.640Z,98887.97
2022-10-31T08:00:44.968Z,98882.22
2022-10-31T08:03:17.292Z,98879.50
2022-10-31T08:06:02.724Z,98878.06
2022-10-31T08:08:32.295Z,98883.78
2022-10-31T08:11:02.134Z,98880.41
2022-10-31T08:13:30.308Z,98886.09
2022-10-31T08:16:04.245Z,98887.19
2022-10-31T08:18:32.844Z,98882.13
2022-10-31T08:20:59.798Z,98884.28
2022-10-31T08:23:26.346Z,98880.44
2022-10-31T08:25:55.895Z,98887.22
2022-10-31T08:28:23.530Z,98884.72
2022-10-31T08:30:51.761Z,98886.47
2022-10-31T08:33:38.543Z,98886.19
2022-10-31T08:36:23.852Z,98892.19
2022-10-31T08:39:01.481Z,98876.09
2022-10-31T08:41:30.501Z,98878.97
2022-10-31T08:43:58.695Z,98884.66
2022-10-31T08:46:25.437Z,98877.56
2022-10-31T08:48:52.731Z,98878.84
2022-10-31T08:51:21.861Z,98873.53
2022-10-31T08:53:53.189Z,98865.59
2022-10-31T08:56:39.811Z,98862.53
2022-10-31T08:59:24.112Z,98862.09
2022-10-31T09:02:23.275Z,98862.31
2022-10-31T09:04:52.851Z,98856.81
2022-10-31T09:07:20.909Z,98848.81
2022-10-31T09:09:48.075Z,98850.44
2022-10-31T09:12:14.703Z,98839.69
2022-10-31T09:14:56.256Z,98849.16
2022-10-31T09:17:31.474Z,98845.97
2022-10-31T09:20:16.835Z,98842.84
2022-10-31T09:22:43.351Z,98829.84
2022-10-31T09:25:10.212Z,98832.28
2022-10-31T09:27:38.251Z,98831.53
2022-10-31T09:30:07.414Z,98829.47
2022-10-31T09:32:34.540Z,98820.84
2022-10-31T09:35:01.300Z,98826.72
2022-10-31T09:37:28.251Z,98825.34
2022-10-31T09:39:54.878Z,98822.66
2022-10-31T09:42:53.766Z,98818.50
2022-10-31T09:45:27.504Z,98819.09
2022-10-31T09:48:15.954Z,98823.94
2022-10-31T09:51:16.062Z,98817.09
2022-10-31T09:54:31.127Z,98811.22
2022-10-31T09:57:01.143Z,98809.50
2022-10-31T09:59:34.478Z,98798.84
2022-10-31T10:02:14.689Z,98801.97
2022-10-31T10:04:52.158Z,98804.69
2022-10-31T10:08:22.335Z,98809.91
2022-10-31T10:11:25.942Z,98800.06
2022-10-31T10:14:19.382Z,98787.88
2022-10-31T10:17:07.149Z,98788.75
2022-10-31T10:20:09.276Z,98784.13
2022-10-31T10:23:24.037Z,98783.00
2022-10-31T10:26:06.092Z,98775.44
2022-10-31T10:28:39.672Z,98790.59
2022-10-31T10:31:15.513Z,98784.03
2022-10-31T10:33:56.953Z,98787.47
2022-10-31T10:39:47.928Z,98792.91
2022-10-31T10:42:35.121Z,98788.47
2022-10-31T10:45:33.470Z,98792.38
2022-10-31T10:48:10.727Z,98783.59
2022-10-31T10:50:42.995Z,98793.31
2022-10-31T10:53:22.195Z,98788.22
2022-10-31T10:55:58.354Z,98782.41
2022-10-31T10:58:24.977Z,98776.94
2022-10-31T11:00:54.372Z,98778.28
2022-10-31T11:03:20.962Z,98767.97
2022-10-31T11:05:53.267Z,98752.00
2022-10-31T11:08:36.770Z,98738.63
2022-10-31T11:11:18.318Z,98727.97
2022-10-31T11:13:48.209Z,98733.34
2022-10-31T11:16:28.914Z,98734.66
2022-10-31T11:19:08.775Z,98731.69
2022-10-31T11:21:35.720Z,98727.25
2022-10-31T11:24:23.121Z,98719.78
2022-10-31T11:26:51.749Z,98720.88
2022-10-31T11:29:25.701Z,98719.31
2022-10-31T11:31:57.744Z,98718.50
2022-10-31T11:34:30.932Z,98718.00
2022-10-31T11:37:10.393Z,98705.56
2022-10-31T11:39:43.412Z,98712.53
2022-10-31T11:42:09.976Z,98702.50
2022-10-31T11:44:36.921Z,98700.00
2022-10-31T11:47:12.953Z,98698.09
2022-10-31T11:49:42.078Z,98694.91
2022-10-31T11:52:16.112Z,98703.28
2022-10-31T11:54:45.999Z,98692.16
2022-10-31T11:57:45.350Z,98691.44
2022-10-31T12:03:13.188Z,98684.16
2022-10-31T12:05:42.342Z,98675.78
2022-10-31T12:08:13.017Z,98673.84
2022-10-31T12:11:12.258Z,98668.19
2022-10-31T12:14:03.715Z,98659.06
2022-10-31T12:16:54.262Z,98659.59
2022-10-31T12:19:20.804Z,98667.22
2022-10-31T12:22:16.100Z,98670.44
2022-10-31T12:25:14.018Z,98659.94
2022-10-31T12:28:03.943Z,98661.19
2022-10-31T12:30:39.598Z,98650.69
2022-10-31T12:33:24.198Z,98637.78
2022-10-31T12:36:12.488Z,98620.63
2022-10-31T12:38:56.912Z,98616.81
2022-10-31T12:42:01.919Z,98623.94
2022-10-31T12:44:52.068Z,98623.81
2022-10-31T12:47:33.601Z,98618.06
2022-10-31T12:50:12.818Z,98610.88
2022-10-31T12:52:42.228Z,98608.72
2022-10-31T12:55:27.491Z,98609.25
2022-10-31T12:58:04.302Z,98616.47
2022-10-31T13:00:34.922Z,98618.31
2022-10-31T13:03:24.518Z,98623.66
2022-10-31T13:05:58.224Z,98627.38
2022-10-31T13:08:36.107Z,98631.91
2022-10-31T13:14:57.330Z,98622.53
2022-10-31T13:18:13.717Z,98604.22
2022-10-31T13:20:44.379Z,98595.25
2022-10-31T13:23:49.900Z,98591.75
2022-10-31T13:26:21.304Z,98589.56
2022-10-31T13:29:40.664Z,98588.00
2022-10-31T13:32:08.208Z,98592.13
2022-10-31T13:34:40.507Z,98584.69
2022-10-31T13:37:37.657Z,98586.09
2022-10-31T13:40:10.490Z,98576.44
2022-10-31T13:43:06.013Z,98569.31
2022-10-31T13:45:32.692Z,98568.63
2022-10-31T13:48:02.288Z,98570.63
2022-10-31T13:50:32.501Z,98570.00
2022-10-31T13:53:37.296Z,98569.22
2022-10-31T13:56:25.503Z,98569.78
2022-10-31T13:59:20.514Z,98565.41
2022-10-31T14:01:50.189Z,98560.94
2022-10-31T14:04:25.194Z,98552.75
2022-10-31T14:06:58.259Z,98544.59
2022-10-31T14:09:29.290Z,98558.19
2022-10-31T14:11:57.156Z,98546.06
2022-10-31T14:14:32.040Z,98543.81
2022-10-31T14:16:59.149Z,98538.59
2022-10-31T14:19:27.706Z,98544.22
2022-10-31T14:21:54.214Z,98539.94
2022-10-31T14:24:23.349Z,98534.63
2022-10-31T14:27:26.249Z,98533.19
2022-10-31T14:29:52.850Z,98526.50
2022-10-31T14:32:27.333Z,98524.78
2022-10-31T14:34:58.789Z,98516.56
2022-10-31T14:37:28.259Z,98498.69
2022-10-31T14:40:20.710Z,98485.91
2022-10-31T14:43:05.995Z,98485.22
2022-10-31T14:46:03.722Z,98466.75
2022-10-31T14:48:44.828Z,98442.25
2022-10-31T14:51:22.119Z,98471.91
2022-10-31T14:53:50.371Z,98489.00
2022-10-31T14:56:30.189Z,98441.66
2022-10-31T14:59:02.073Z,98457.13
2022-10-31T15:01:37.917Z,98461.78
2022-10-31T15:04:23.506Z,98424.16
2022-10-31T15:06:58.803Z,98416.72
2022-10-31T15:09:32.858Z,98427.00
2022-10-31T15:12:01.127Z,98422.25
2022-10-31T15:14:30.469Z,98418.03
2022-10-31T15:16:59.545Z,98405.50
2022-10-31T15:19:29.506Z,98400.41
2022-10-31T15:21:58.580Z,98393.03
2022-10-31T15:24:36.544Z,98386.16
2022-10-31T15:27:05.273Z,98386.38
2022-10-31T15:29:32.883Z,98393.22
2022-10-31T15:32:19.514Z,98402.63
2022-10-31T15:34:45.968Z,98389.56
2022-10-31T15:37:17.364Z,98376.81
2022-10-31T15:39:45.153Z,98375.22
2022-10-31T15:42:25.136Z,98370.84
2022-10-31T15:45:15.632Z,98375.81
2022-10-31T15:47:55.761Z,98389.38
2022-10-31T15:50:41.546Z,98384.50
2022-10-31T15:53:19.423Z,98409.56
2022-10-31T15:55:51.722Z,98409.78
2022-10-31T15:58:18.911Z,98414.19
2022-10-31T16:00:45.773Z,98411.19
2022-10-31T16:03:15.458Z,98412.41
2022-10-31T16:05:50.030Z,98426.44
2022-10-31T16:08:25.283Z,98421.13
2022-10-31T16:10:52.655Z,98432.31
2022-10-31T16:13:25.139Z,98447.81
2022-10-31T16:16:21.381Z,98451.19
2022-10-31T16:18:45.784Z,98470.59
2022-10-31T16:21:13.401Z,98472.22
2022-10-31T16:23:46.785Z,98481.00
2022-10-31T16:26:19.284Z,98461.06
2022-10-31T16:29:24.297Z,98459.00
2022-10-31T16:31:50.763Z,98452.88
2022-10-31T16:34:26.920Z,98452.38
2022-10-31T16:36:54.152Z,98452.66
2022-10-31T16:39:21.075Z,98459.66
2022-10-31T16:41:51.323Z,98455.25
2022-10-31T16:44:26.475Z,98455.47
2022-10-31T16:47:25.977Z,98450.47
2022-10-31T16:49:54.942Z,98442.34
2022-10-31T16:52:21.383Z,98428.44
2022-10-31T16:54:47.856Z,98439.34
2022-10-31T16:57:18.205Z,98428.34
2022-10-31T16:59:49.289Z,98426.56
2022-10-31T17:02:17.569Z,98430.63
2022-10-31T17:04:44.864Z,98431.53
2022-10-31T17:07:11.429Z,98443.63
2022-10-31T17:09:37.951Z,98444.25
2022-10-31T17:12:06.320Z,98436.91
2022-10-31T17:14:34.217Z,98433.88
2022-10-31T17:17:00.741Z,98431.31
2022-10-31T17:19:27.256Z,98433.50
2022-10-31T17:21:53.838Z,98440.00
2022-10-31T17:24:20.308Z,98446.53
2022-10-31T17:26:47.196Z,98448.56
2022-10-31T17:29:13.750Z,98449.81
2022-10-31T17:31:40.253Z,98456.06
2022-10-31T17:34:07.233Z,98461.72
2022-10-31T17:36:34.774Z,98456.31
2022-10-31T17:39:01.377Z,98459.41
2022-10-31T17:41:27.896Z,98468.09
2022-10-31T17:43:56.027Z,98468.25
2022-10-31T17:46:22.895Z,98476.28
2022-10-31T17:48:49.911Z,98480.19
2022-10-31T17:51:16.611Z,98481.81
2022-10-31T17:53:43.133Z,98487.28
2022-10-31T17:56:10.694Z,98491.19
2022-10-31T17:58:38.062Z,98485.50
2022-10-31T18:01:10.661Z,98481.22
2022-10-31T18:03:37.767Z,98485.13
2022-10-31T18:06:04.604Z,98478.59
2022-10-31T18:08:33.426Z,98477.97
2022-10-31T18:11:00.673Z,98475.56
2022-10-31T18:13:28.271Z,98471.69
2022-10-31T18:15:54.959Z,98479.81
2022-10-31T18:18:22.052Z,98477.75
2022-10-31T18:20:48.692Z,98476.53
2022-10-31T18:23:15.170Z,98475.31
2022-10-31T18:25:43.402Z,98474.97
2022-10-31T18:28:10.548Z,98479.44
2022-10-31T18:30:41.184Z,98491.06
2022-10-31T18:33:08.853Z,98478.84
2022-10-31T18:35:39.826Z,98477.63
2022-10-31T18:38:07.253Z,98477.84
2022-10-31T18:40:35.731Z,98478.44
2022-10-31T18:43:02.933Z,98476.78
2022-10-31T18:45:45.347Z,98469.66
2022-10-31T18:48:14.812Z,98473.91
2022-10-31T18:50:41.853Z,98473.91
2022-10-31T18:53:08.462Z,98473.69
2022-10-31T18:55:39.397Z,98475.75
2022-10-31T18:58:06.400Z,98473.31
2022-10-31T19:00:32.853Z,98462.28
2022-10-31T19:02:59.590Z,98459.03
2022-10-31T19:05:26.353Z,98461.41
2022-10-31T19:07:52.834Z,98461.38
2022-10-31T19:10:19.327Z,98459.53
2022-10-31T19:12:45.750Z,98449.94
2022-10-31T19:15:12.366Z,98452.75
2022-10-31T19:17:38.852Z,98452.75
2022-10-31T19:20:05.816Z,98452.16
2022-10-31T19:22:32.305Z,98444.19
2022-10-31T19:24:58.772Z,98449.19
2022-10-31T19:27:27.974Z,98449.16
2022-10-31T19:29:54.538Z,98439.03
2022-10-31T19:32:21.111Z,98434.47
2022-10-31T19:34:47.567Z,98436.91
2022-10-31T19:37:14.347Z,98434.72
2022-10-31T19:39:44.131Z,98439.81
2022-10-31T19:42:11.013Z,98430.25
2022-10-31T19:44:37.570Z,98425.38
2022-10-31T19:47:04.097Z,98433.28
2022-10-31T19:49:30.681Z,98436.34
2022-10-31T19:51:57.271Z,98431.25
2022-10-31T19:54:23.760Z,98423.31
2022-10-31T19:56:50.230Z,98413.53
2022-10-31T19:59:16.749Z,98419.84
2022-10-31T20:01:43.380Z,98426.00
2022-10-31T20:04:09.974Z,98424.13
2022-10-31T20:06:39.336Z,98427.75
2022-10-31T20:09:08.659Z,98426.72
2022-10-31T20:11:37.342Z,98421.50
2022-10-31T20:14:03.980Z,98416.03
2022-10-31T20:16:30.613Z,98409.34
2022-10-31T20:18:59.398Z,98408.72
2022-10-31T20:21:28.514Z,98408.69
2022-10-31T20:24:03.615Z,98403.25
2022-10-31T20:26:31.489Z,98408.75
2022-10-31T20:28:59.151Z,98397.16
2022-10-31T20:31:28.442Z,98397.13
2022-10-31T20:33:55.906Z,98404.06
2022-10-31T20:36:23.327Z,98395.16
2022-10-31T20:38:51.372Z,98398.88
2022-10-31T20:41:18.343Z,98387.84
2022-10-31T20:43:45.336Z,98390.25
2022-10-31T20:46:23.992Z,98394.94
2022-10-31T20:48:51.839Z,98390.47
2022-10-31T20:51:21.476Z,98386.00
2022-10-31T20:53:52.704Z,98393.50
2022-10-31T20:56:21.637Z,98389.41
2022-10-31T20:58:48.783Z,98392.78
2022-10-31T21:01:18.433Z,98390.56
2022-10-31T21:03:45.502Z,98390.72
2022-10-31T21:06:13.019Z,98404.72
2022-10-31T21:08:40.207Z,98397.16
2022-10-31T21:11:12.320Z,98402.03
2022-10-31T21:13:42.162Z,98406.75
2022-10-31T21:16:12.229Z,98404.13
2022-10-31T21:18:40.355Z,98404.50
2022-10-31T21:21:16.517Z,98399.06
2022-10-31T21:23:43.975Z,98399.28
2022-10-31T21:26:17.325Z,98399.66
2022-10-31T21:28:44.039Z,98396.53
2022-10-31T21:31:13.808Z,98399.41
2022-10-31T21:33:40.568Z,98393.94
2022-10-31T21:36:07.671Z,98393.31
2022-10-31T21:38:34.655Z,98391.56
2022-10-31T21:41:09.645Z,98388.75
2022-10-31T21:43:38.049Z,98395.44
2022-10-31T21:46:10.837Z,98397.00
2022-10-31T21:48:42.837Z,98406.88
2022-10-31T21:51:15.453Z,98394.28
2022-10-31T21:54:01.487Z,98399.94
2022-10-31T21:56:28.280Z,98400.97
2022-10-31T21:58:55.459Z,98398.41
2022-10-31T22:01:24.411Z,98398.00
2022-10-31T22:03:51.382Z,98396.75
2022-10-31T22:06:18.224Z,98390.25
2022-10-31T22:08:44.843Z,98382.16
2022-10-31T22:11:14.311Z,98387.69
2022-10-31T22:13:42.459Z,98379.53
2022-10-31T22:16:14.853Z,98373.50
2022-10-31T22:18:42.315Z,98372.97
2022-10-31T22:21:11.940Z,98374.03
2022-10-31T22:23:38.922Z,98370.97
2022-10-31T22:26:07.891Z,98371.38
2022-10-31T22:28:35.565Z,98362.25
2022-10-31T22:31:06.018Z,98367.09
2022-10-31T22:33:33.009Z,98368.78
2022-10-31T22:36:05.510Z,98372.06
2022-10-31T22:38:39.983Z,98374.69
2022-10-31T22:41:08.203Z,98372.66
2022-10-31T22:43:35.359Z,98370.16
2022-10-31T22:46:04.814Z,98364.53
2022-10-31T22:48:34.768Z,98367.97
2022-10-31T22:51:12.206Z,98357.63
2022-10-31T22:53:39.380Z,98359.03
2022-10-31T22:56:07.690Z,98356.00
2022-10-31T22:58:34.591Z,98362.09
2022-10-31T23:01:07.104Z,98357.13
2022-10-31T23:03:34.066Z,98355.31
2022-10-31T23:06:02.343Z,98360.81
2022-10-31T23:08:30.156Z,98351.25
2022-10-31T23:10:56.978Z,98360.41
2022-10-31T23:13:42.041Z,98353.34
2022-10-31T23:16:10.316Z,98357.00
2022-10-31T23:18:49.668Z,98351.91
2022-10-31T23:21:37.416Z,98360.47
2022-10-31T23:24:04.329Z,98366.34
2022-10-31T23:26:49.220Z,98365.28
2022-10-31T23:29:15.723Z,98371.75
2022-10-31T23:31:42.171Z,98371.53
2022-10-31T23:34:08.730Z,98371.53
2022-10-31T23:36:35.218Z,98378.84
2022-10-31T23:39:01.688Z,98371.16
2022-10-31T23:41:28.131Z,98367.28
2022-10-31T23:43:55.016Z,98370.53
2022-10-31T23:46:21.514Z,98374.56
2022-10-31T23:48:49.306Z,98380.41
2022-10-31T23:51:15.902Z,98382.19
2022-10-31T23:53:46.185Z,98386.47
2022-10-31T23:56:13.385Z,98384.50
2022-10-31T23:58:40.216Z,98381.69
